Time;durP1;ratioP1;P1;durP2;ratioP2;P2;SDS_P1;SDS_P2;PMS_P1;PMS_P2;Temp;Humidity;BMP_temperature;BMP_pressure;BME280_temperature;BME280_humidity;BME280_pressure;Samples;Min_cycle;Max_cycle;Signal;HPM_P1;HPM_P2
2022/01/09 00:00:20;;;;;;;3.58;1.70;;;5.10;99.90;;;;;;4928683;29;20257;-73
2022/01/09 00:03:06;;;;;;;2.10;1.60;;;5.10;99.90;;;;;;4935269;29;20232;-73
2022/01/09 00:05:54;;;;;;;3.60;1.77;;;5.20;99.90;;;;;;4935433;29;20225;-73
2022/01/09 00:08:39;;;;;;;3.92;2.15;;;5.20;99.90;;;;;;4933952;29;20212;-73
2022/01/09 00:11:26;;;;;;;2.63;1.67;;;5.30;99.90;;;;;;4935531;29;20208;-71
2022/01/09 00:14:11;;;;;;;3.53;1.80;;;5.20;99.90;;;;;;4935057;29;20232;-72
2022/01/09 00:16:59;;;;;;;2.72;2.03;;;5.20;99.90;;;;;;4932850;29;20192;-73
2022/01/09 00:19:45;;;;;;;4.43;2.22;;;5.10;99.90;;;;;;4934908;29;20209;-73
2022/01/09 00:22:37;;;;;;;3.80;2.13;;;5.20;99.90;;;;;;4935070;29;20372;-73
2022/01/09 00:25:25;;;;;;;2.45;1.70;;;5.20;99.90;;;;;;4929656;29;20229;-72
2022/01/09 00:28:10;;;;;;;3.50;1.92;;;5.20;99.90;;;;;;4931632;29;20289;-73
2022/01/09 00:30:56;;;;;;;2.63;1.75;;;5.30;99.90;;;;;;4934542;29;20209;-72
2022/01/09 00:33:42;;;;;;;3.15;1.80;;;5.20;99.90;;;;;;4933838;29;20232;-71
2022/01/09 00:36:27;;;;;;;3.55;1.85;;;5.20;99.90;;;;;;4931567;29;20577;-73
2022/01/09 00:39:15;;;;;;;2.45;1.60;;;5.20;99.90;;;;;;4929690;29;20212;-72
2022/01/09 00:42:00;;;;;;;2.20;1.50;;;5.20;99.90;;;;;;4933977;29;20747;-71
2022/01/09 00:44:45;;;;;;;1.92;1.60;;;5.20;99.90;;;;;;4933969;29;20694;-73
2022/01/09 00:47:31;;;;;;;5.72;1.48;;;5.20;99.90;;;;;;4922600;29;20224;-73
2022/01/09 00:50:17;;;;;;;1.80;1.25;;;5.20;99.90;;;;;;4933391;29;20209;-73
2022/01/09 00:53:02;;;;;;;2.22;1.30;;;5.20;99.90;;;;;;4933464;29;20236;-71
2022/01/09 00:55:49;;;;;;;2.35;1.58;;;5.10;99.90;;;;;;4929723;29;20265;-72
2022/01/09 00:58:35;;;;;;;1.80;1.40;;;5.20;99.90;;;;;;4926981;29;20217;-73
2022/01/09 01:01:21;;;;;;;2.20;1.20;;;5.20;99.90;;;;;;4934886;29;20281;-73
2022/01/09 01:04:06;;;;;;;2.15;1.30;;;5.10;99.90;;;;;;4933574;29;20239;-73
2022/01/09 01:06:52;;;;;;;4.25;1.42;;;5.10;99.90;;;;;;4931012;29;20245;-73
2022/01/09 01:09:37;;;;;;;2.05;1.50;;;5.20;99.90;;;;;;4934804;29;20333;-73
2022/01/09 01:12:25;;;;;;;1.85;1.38;;;5.20;99.90;;;;;;4933094;29;20224;-72
2022/01/09 01:15:12;;;;;;;1.90;1.50;;;5.20;99.90;;;;;;4931417;29;20241;-72
2022/01/09 01:17:58;;;;;;;2.55;1.15;;;5.20;99.90;;;;;;4931939;29;20321;-73
2022/01/09 01:20:44;;;;;;;1.80;1.30;;;5.30;99.90;;;;;;4933108;29;20225;-73
2022/01/09 01:23:29;;;;;;;2.25;1.25;;;5.30;99.90;;;;;;4929590;29;20223;-72
2022/01/09 01:26:15;;;;;;;8.70;1.75;;;5.30;99.90;;;;;;4928308;29;20231;-72
2022/01/09 01:29:02;;;;;;;2.33;1.35;;;5.30;99.90;;;;;;4934299;29;20252;-73
2022/01/09 01:31:48;;;;;;;1.65;1.20;;;5.40;99.90;;;;;;4932568;29;20204;-72
2022/01/09 01:34:34;;;;;;;2.05;1.30;;;5.40;99.90;;;;;;4931553;29;20639;-70
2022/01/09 01:37:19;;;;;;;1.55;0.85;;;5.50;99.90;;;;;;4925505;29;20285;-73
2022/01/09 01:40:07;;;;;;;1.40;0.80;;;5.50;99.90;;;;;;4932132;29;20625;-73
2022/01/09 01:42:53;;;;;;;1.67;0.80;;;5.60;99.90;;;;;;4934905;29;20359;-72
2022/01/09 01:45:40;;;;;;;1.45;1.00;;;5.70;99.90;;;;;;4934893;29;20228;-72
2022/01/09 01:48:25;;;;;;;1.58;1.10;;;5.70;99.90;;;;;;4930225;29;20577;-73
2022/01/09 01:51:11;;;;;;;1.20;0.70;;;5.80;99.90;;;;;;4937816;29;20204;-73
2022/01/09 01:53:57;;;;;;;1.73;0.85;;;5.90;99.90;;;;;;4936929;29;20609;-72
2022/01/09 01:56:43;;;;;;;2.10;1.25;;;6.00;99.90;;;;;;4926780;29;20336;-73
2022/01/09 01:59:28;;;;;;;1.55;0.80;;;6.00;99.90;;;;;;4936887;29;20212;-72
2022/01/09 02:02:15;;;;;;;2.95;0.80;;;6.00;99.90;;;;;;4935734;29;20233;-72
2022/01/09 02:05:01;;;;;;;1.52;0.73;;;6.10;99.90;;;;;;4931866;29;20278;-73
2022/01/09 02:07:47;;;;;;;2.33;1.00;;;6.10;99.90;;;;;;4929333;29;20361;-72
2022/01/09 02:10:33;;;;;;;1.33;0.75;;;6.10;99.90;;;;;;4932195;29;20765;-72
2022/01/09 02:13:19;;;;;;;1.60;0.80;;;6.20;99.90;;;;;;4936839;29;20229;-73
2022/01/09 02:16:06;;;;;;;1.58;0.80;;;6.20;99.90;;;;;;4921769;29;20221;-72
2022/01/09 02:18:53;;;;;;;1.30;0.75;;;6.10;99.90;;;;;;4936591;29;20298;-72
2022/01/09 02:21:41;;;;;;;1.70;0.85;;;6.10;99.90;;;;;;4933742;29;20291;-73
2022/01/09 02:24:26;;;;;;;1.35;0.93;;;6.20;99.90;;;;;;4932631;29;20201;-72
2022/01/09 02:27:12;;;;;;;1.50;0.90;;;6.10;99.90;;;;;;4943326;29;20260;-72
2022/01/09 02:29:58;;;;;;;2.65;0.93;;;6.10;99.90;;;;;;4934680;29;20212;-73
2022/01/09 02:32:43;;;;;;;1.50;0.82;;;6.10;99.90;;;;;;4936053;29;20236;-72
2022/01/09 02:35:29;;;;;;;1.75;0.70;;;6.10;99.90;;;;;;4937198;29;20565;-73
2022/01/09 02:38:16;;;;;;;1.85;0.88;;;6.10;99.90;;;;;;4935898;29;20672;-73
2022/01/09 02:41:02;;;;;;;1.20;0.70;;;6.10;99.90;;;;;;4935224;29;20690;-73
2022/01/09 02:43:48;;;;;;;1.23;0.88;;;6.10;99.90;;;;;;4934941;29;20300;-72
2022/01/09 02:46:43;;;;;;;1.20;0.73;;;6.10;99.90;;;;;;4935728;29;20232;-73
2022/01/09 02:49:31;;;;;;;1.45;1.02;;;6.10;99.90;;;;;;4930723;29;20280;-73
2022/01/09 02:52:29;;;;;;;1.20;0.70;;;6.10;99.90;;;;;;4936311;29;20236;-73
2022/01/09 02:55:16;;;;;;;1.65;1.00;;;6.10;99.90;;;;;;4925737;29;20675;-73
2022/01/09 02:58:02;;;;;;;1.70;0.80;;;6.10;99.90;;;;;;4943118;29;20338;-73
2022/01/09 03:00:47;;;;;;;2.77;1.63;;;6.10;99.90;;;;;;4935423;29;20216;-73
2022/01/09 03:03:34;;;;;;;2.47;1.00;;;6.10;99.90;;;;;;4929428;29;20990;-72
2022/01/09 03:06:19;;;;;;;1.60;0.90;;;6.10;99.90;;;;;;4931893;29;20308;-73
2022/01/09 03:09:06;;;;;;;4.07;0.80;;;6.10;99.90;;;;;;4934443;29;20265;-70
2022/01/09 03:11:53;;;;;;;5.83;0.80;;;6.10;99.90;;;;;;4933542;29;20209;-73
2022/01/09 03:14:38;;;;;;;1.67;1.10;;;6.10;99.90;;;;;;4932050;29;20537;-72
2022/01/09 03:17:24;;;;;;;1.38;0.80;;;6.20;99.90;;;;;;4934714;29;20481;-73
2022/01/09 03:20:12;;;;;;;1.40;0.80;;;6.10;99.90;;;;;;4933837;29;20224;-73
2022/01/09 03:22:58;;;;;;;1.60;1.00;;;6.10;99.90;;;;;;4935352;29;20221;-73
2022/01/09 03:25:44;;;;;;;3.15;1.02;;;6.20;99.90;;;;;;4930462;29;20525;-73
2022/01/09 03:28:31;;;;;;;3.40;1.05;;;6.20;99.90;;;;;;4935839;29;20205;-73
2022/01/09 03:31:16;;;;;;;2.40;1.30;;;6.20;99.90;;;;;;4928401;29;20213;-73
2022/01/09 03:34:02;;;;;;;3.70;1.42;;;6.20;99.90;;;;;;4932409;29;20485;-73
2022/01/09 03:36:48;;;;;;;2.47;1.50;;;6.20;99.90;;;;;;4934806;29;20697;-73
2022/01/09 03:39:34;;;;;;;2.97;1.70;;;6.20;99.90;;;;;;4935133;29;20209;-73
2022/01/09 03:42:20;;;;;;;3.30;1.87;;;6.20;99.90;;;;;;4935458;29;20220;-73
2022/01/09 03:45:09;;;;;;;2.03;1.67;;;6.20;99.90;;;;;;4932960;29;20469;-72
2022/01/09 03:47:55;;;;;;;4.30;1.73;;;6.20;99.90;;;;;;4935214;29;20698;-73
2022/01/09 03:50:41;;;;;;;2.03;1.80;;;6.20;99.90;;;;;;4934070;29;20460;-73
2022/01/09 03:53:27;;;;;;;3.23;1.53;;;6.20;99.90;;;;;;4926006;29;20493;-72
2022/01/09 03:56:13;;;;;;;5.53;1.97;;;6.20;99.90;;;;;;4931997;29;20532;-73
2022/01/09 03:58:58;;;;;;;2.28;1.23;;;6.20;99.90;;;;;;4933282;29;20501;-73
2022/01/09 04:01:46;;;;;;;1.87;1.20;;;6.20;99.90;;;;;;4935133;29;20288;-72
2022/01/09 04:04:32;;;;;;;1.90;1.00;;;6.30;99.90;;;;;;4927973;29;20478;-73
2022/01/09 04:07:18;;;;;;;3.42;1.42;;;6.30;99.90;;;;;;4933307;29;20225;-73
2022/01/09 04:10:04;;;;;;;1.45;1.00;;;6.20;99.90;;;;;;4934176;29;20213;-73
2022/01/09 04:12:57;;;;;;;1.92;1.05;;;6.30;99.90;;;;;;4932765;29;20718;-73
2022/01/09 04:15:47;;;;;;;1.50;1.00;;;6.20;99.90;;;;;;4933555;29;20212;-73
2022/01/09 04:18:34;;;;;;;2.88;1.15;;;6.20;99.90;;;;;;4928120;29;20217;-72
2022/01/09 04:21:19;;;;;;;3.25;1.00;;;6.20;99.90;;;;;;4928412;29;20208;-73
2022/01/09 04:24:05;;;;;;;1.40;0.80;;;6.10;99.90;;;;;;4931220;29;20269;-71
2022/01/09 04:26:51;;;;;;;2.10;1.10;;;6.20;99.90;;;;;;4938585;29;20220;-73
2022/01/09 04:29:37;;;;;;;3.30;1.00;;;6.20;99.90;;;;;;4930054;29;20288;-73
2022/01/09 04:32:23;;;;;;;1.30;0.80;;;6.10;99.90;;;;;;4932016;29;20324;-73
2022/01/09 04:35:11;;;;;;;1.60;0.80;;;6.10;99.90;;;;;;4932876;29;20277;-73
2022/01/09 04:37:57;;;;;;;1.90;0.75;;;6.10;99.90;;;;;;4931343;29;20213;-73
2022/01/09 04:40:42;;;;;;;1.70;0.80;;;6.10;99.90;;;;;;4934892;29;20209;-73
2022/01/09 04:43:29;;;;;;;2.00;0.70;;;6.10;99.90;;;;;;4927937;29;20232;-72
2022/01/09 04:46:21;;;;;;;2.85;0.70;;;6.00;99.90;;;;;;4933868;29;20217;-74
2022/01/09 04:49:07;;;;;;;1.38;0.60;;;5.90;99.90;;;;;;4933581;29;20201;-73
2022/01/09 04:51:55;;;;;;;1.37;0.60;;;5.90;99.90;;;;;;4932419;29;20208;-73
2022/01/09 04:54:41;;;;;;;1.10;0.60;;;5.80;99.90;;;;;;4932786;29;20561;-71
2022/01/09 04:57:27;;;;;;;1.25;0.70;;;5.80;99.90;;;;;;4927664;29;20204;-73
2022/01/09 05:00:13;;;;;;;1.10;0.50;;;5.80;99.90;;;;;;4934261;29;20208;-73
2022/01/09 05:02:59;;;;;;;1.10;0.50;;;5.80;99.90;;;;;;4924248;29;20323;-73
2022/01/09 05:05:44;;;;;;;1.77;0.90;;;5.80;99.90;;;;;;4933448;29;20220;-73
2022/01/09 05:08:31;;;;;;;1.30;0.60;;;5.80;99.90;;;;;;4934117;29;20285;-73
2022/01/09 05:11:17;;;;;;;1.10;0.57;;;5.80;99.90;;;;;;4932285;29;20212;-71
2022/01/09 05:14:03;;;;;;;1.10;0.50;;;5.80;99.90;;;;;;4932785;29;20229;-73
2022/01/09 05:16:49;;;;;;;1.35;0.70;;;5.80;99.90;;;;;;4935319;29;20201;-71
2022/01/09 05:19:36;;;;;;;1.10;0.60;;;5.80;99.90;;;;;;4938129;29;20252;-73
2022/01/09 05:22:21;;;;;;;1.25;0.73;;;5.80;99.90;;;;;;4931245;29;20249;-73
2022/01/09 05:25:09;;;;;;;1.20;0.60;;;5.80;99.90;;;;;;4937113;29;20204;-73
2022/01/09 05:27:55;;;;;;;1.08;0.60;;;5.70;99.90;;;;;;4937766;29;20745;-73
2022/01/09 05:30:40;;;;;;;1.30;0.60;;;5.80;99.90;;;;;;4937918;29;20232;-73
2022/01/09 05:33:26;;;;;;;1.42;0.70;;;5.70;99.90;;;;;;4935073;29;20304;-73
2022/01/09 05:36:12;;;;;;;1.02;0.50;;;5.60;99.90;;;;;;4936947;29;20285;-73
2022/01/09 05:38:57;;;;;;;1.45;0.70;;;5.50;99.90;;;;;;4935964;29;20208;-73
2022/01/09 05:41:45;;;;;;;1.50;0.67;;;5.50;99.90;;;;;;4935131;29;20581;-73
2022/01/09 05:44:32;;;;;;;1.42;0.73;;;5.40;99.90;;;;;;4923149;29;20940;-72
2022/01/09 05:47:17;;;;;;;2.05;0.93;;;5.50;99.90;;;;;;4937046;29;20227;-72
2022/01/09 05:50:03;;;;;;;1.40;0.80;;;5.50;99.90;;;;;;4937007;29;20272;-73
2022/01/09 05:52:49;;;;;;;1.27;0.70;;;5.50;99.90;;;;;;4943675;23;20304;-69
2022/01/09 05:55:34;;;;;;;2.17;0.80;;;5.30;99.90;;;;;;4956059;29;20211;-69
2022/01/09 05:58:21;;;;;;;1.73;0.80;;;5.30;99.90;;;;;;4948653;29;20200;-69
2022/01/09 06:01:08;;;;;;;1.95;0.77;;;5.40;99.90;;;;;;4955020;29;20228;-69
2022/01/09 06:03:54;;;;;;;2.90;1.20;;;5.30;99.90;;;;;;4952718;29;20808;-69
2022/01/09 06:06:40;;;;;;;2.50;1.02;;;5.40;99.90;;;;;;4955295;29;20335;-69
2022/01/09 06:09:25;;;;;;;3.60;1.00;;;5.40;99.90;;;;;;4943985;29;20684;-69
2022/01/09 06:12:11;;;;;;;2.20;0.80;;;5.30;99.90;;;;;;4943670;29;20216;-69
2022/01/09 06:14:58;;;;;;;1.88;0.88;;;5.40;99.90;;;;;;4946795;28;20329;-69
2022/01/09 06:17:45;;;;;;;1.65;0.90;;;5.30;99.90;;;;;;4954964;29;20212;-69
2022/01/09 06:20:31;;;;;;;4.00;1.02;;;5.40;99.90;;;;;;4949395;28;20280;-69
2022/01/09 06:23:20;;;;;;;1.60;0.80;;;5.40;99.90;;;;;;4942695;29;20279;-69
2022/01/09 06:26:05;;;;;;;2.33;1.10;;;5.40;99.90;;;;;;4955703;29;20211;-69
2022/01/09 06:28:51;;;;;;;2.15;1.25;;;5.40;99.90;;;;;;4951895;28;20446;-69
2022/01/09 06:31:38;;;;;;;1.80;1.00;;;5.50;99.90;;;;;;4944305;29;20224;-70
2022/01/09 06:34:24;;;;;;;2.90;1.23;;;5.50;99.90;;;;;;4949719;29;20551;-69
2022/01/09 06:37:12;;;;;;;2.78;1.20;;;5.50;99.90;;;;;;4951773;29;20197;-69
2022/01/09 06:39:58;;;;;;;3.47;1.02;;;5.40;99.90;;;;;;4954649;29;20216;-69
2022/01/09 06:42:44;;;;;;;3.50;1.20;;;5.40;99.90;;;;;;4945379;29;20232;-69
2022/01/09 06:45:29;;;;;;;1.92;1.00;;;5.50;99.90;;;;;;4936979;29;20221;-69
2022/01/09 06:48:17;;;;;;;4.00;1.23;;;5.50;99.90;;;;;;4955735;29;20224;-69
2022/01/09 06:51:02;;;;;;;2.13;1.13;;;5.50;99.90;;;;;;4948880;29;20617;-69
2022/01/09 06:53:48;;;;;;;10.93;1.50;;;5.50;99.90;;;;;;4952203;29;20239;-70
2022/01/09 06:56:33;;;;;;;2.17;1.30;;;5.40;99.90;;;;;;4952073;29;20272;-69
2022/01/09 06:59:19;;;;;;;5.13;1.83;;;5.40;99.90;;;;;;4955708;28;20519;-69
2022/01/09 07:02:05;;;;;;;3.72;1.83;;;5.50;99.90;;;;;;4945766;29;20201;-69
2022/01/09 07:04:52;;;;;;;6.53;2.67;;;5.50;99.90;;;;;;4955852;29;20212;-69
2022/01/09 07:07:38;;;;;;;5.95;2.30;;;5.50;99.90;;;;;;4950575;29;20224;-69
2022/01/09 07:10:23;;;;;;;6.65;2.00;;;5.50;99.90;;;;;;4938921;29;20220;-69
2022/01/09 07:13:09;;;;;;;5.50;2.03;;;5.40;99.90;;;;;;4947770;28;20785;-69
2022/01/09 07:15:54;;;;;;;4.43;1.90;;;5.40;99.90;;;;;;4948409;29;20208;-69
2022/01/09 07:18:40;;;;;;;8.63;2.45;;;5.50;99.90;;;;;;4955268;29;20424;-70
2022/01/09 07:21:27;;;;;;;11.00;2.55;;;5.50;99.90;;;;;;4945492;29;20217;-69
2022/01/09 07:24:13;;;;;;;7.63;2.22;;;5.60;99.90;;;;;;4936070;29;20878;-69
2022/01/09 07:26:58;;;;;;;6.65;3.03;;;5.60;99.90;;;;;;4960016;28;20214;-70
2022/01/09 07:29:43;;;;;;;7.18;2.85;;;5.70;99.90;;;;;;4949723;29;20565;-69
2022/01/09 07:32:29;;;;;;;8.77;2.50;;;5.70;99.90;;;;;;4943990;29;20613;-69
2022/01/09 07:35:15;;;;;;;7.00;2.20;;;5.70;99.90;;;;;;4939711;29;20577;-69
2022/01/09 07:38:02;;;;;;;9.98;2.72;;;5.70;99.90;;;;;;4952310;29;20283;-69
2022/01/09 07:40:48;;;;;;;9.35;2.70;;;5.70;99.90;;;;;;4942853;28;20205;-69
2022/01/09 07:43:33;;;;;;;13.45;3.33;;;5.70;99.90;;;;;;4941938;29;20229;-69
2022/01/09 07:46:19;;;;;;;12.13;2.70;;;5.70;99.90;;;;;;4947980;29;20570;-69
2022/01/09 07:49:05;;;;;;;8.85;2.95;;;5.60;99.90;;;;;;4944217;29;20569;-69
2022/01/09 07:51:51;;;;;;;9.68;3.00;;;5.60;99.90;;;;;;4947596;28;20216;-69
2022/01/09 07:54:38;;;;;;;10.57;2.70;;;5.70;99.90;;;;;;4953712;29;20721;-69
2022/01/09 07:57:24;;;;;;;9.25;2.53;;;5.80;99.90;;;;;;4951453;29;20278;-70
2022/01/09 08:00:11;;;;;;;28.65;12.70;;;5.80;99.90;;;;;;4949535;29;20221;-69
2022/01/09 08:02:56;;;;;;;16.58;5.70;;;5.80;99.90;;;;;;4949135;29;20228;-69
2022/01/09 08:05:43;;;;;;;7.90;3.30;;;5.80;99.90;;;;;;4946164;29;20688;-69
2022/01/09 08:08:28;;;;;;;14.52;7.70;;;5.80;99.90;;;;;;4952317;29;20492;-69
2022/01/09 08:11:17;;;;;;;12.82;6.28;;;5.80;99.90;;;;;;4935964;28;20214;-69
2022/01/09 08:14:03;;;;;;;14.65;6.13;;;5.80;99.90;;;;;;4948039;29;20227;-69
2022/01/09 08:16:49;;;;;;;7.65;3.20;;;5.90;99.90;;;;;;4950605;29;20748;-69
2022/01/09 08:19:35;;;;;;;9.25;5.40;;;5.90;99.90;;;;;;4935309;29;20205;-69
2022/01/09 08:22:21;;;;;;;6.10;3.20;;;5.80;99.90;;;;;;4942312;29;20216;-69
2022/01/09 08:25:07;;;;;;;10.90;4.78;;;5.70;99.90;;;;;;4947305;29;20456;-69
2022/01/09 08:27:55;;;;;;;9.32;2.72;;;5.80;99.90;;;;;;4946716;29;20835;-69
2022/01/09 08:30:41;;;;;;;14.93;6.85;;;5.80;99.90;;;;;;4944969;29;20217;-69
2022/01/09 08:33:26;;;;;;;8.60;2.80;;;5.80;99.90;;;;;;4942268;29;20228;-69
2022/01/09 08:36:12;;;;;;;4.60;1.97;;;5.80;99.90;;;;;;4952909;29;20418;-69
2022/01/09 08:38:58;;;;;;;12.57;4.93;;;5.90;99.90;;;;;;4946286;29;20447;-69
2022/01/09 08:41:44;;;;;;;10.70;2.83;;;5.80;99.90;;;;;;4936454;29;20209;-69
2022/01/09 08:44:31;;;;;;;14.57;4.90;;;5.80;99.90;;;;;;4948216;29;20418;-69
2022/01/09 08:47:16;;;;;;;11.95;4.28;;;5.80;99.90;;;;;;4939394;29;20211;-70
2022/01/09 08:50:02;;;;;;;8.65;4.05;;;5.70;99.90;;;;;;4948895;28;20212;-69
2022/01/09 08:52:48;;;;;;;13.65;3.55;;;5.70;99.90;;;;;;4941787;29;20643;-69
2022/01/09 08:55:34;;;;;;;11.77;3.90;;;5.60;99.90;;;;;;4953681;29;20209;-70
2022/01/09 08:58:19;;;;;;;10.48;4.45;;;5.60;99.90;;;;;;4946371;28;20213;-69
2022/01/09 09:01:06;;;;;;;13.02;5.00;;;5.60;99.90;;;;;;4946968;29;20212;-69
2022/01/09 09:03:52;;;;;;;9.52;4.05;;;5.70;99.90;;;;;;4953630;29;20601;-69
2022/01/09 09:06:37;;;;;;;13.52;5.68;;;5.70;99.90;;;;;;4943563;29;20216;-69
2022/01/09 09:09:23;;;;;;;5.63;2.13;;;5.80;99.90;;;;;;4934896;29;20231;-69
2022/01/09 09:12:09;;;;;;;7.15;2.40;;;5.80;99.90;;;;;;4945125;29;20207;-70
2022/01/09 09:14:55;;;;;;;10.75;3.35;;;5.90;99.90;;;;;;4945905;29;20208;-69
2022/01/09 09:17:42;;;;;;;22.90;6.43;;;5.90;99.90;;;;;;4948982;29;20208;-69
2022/01/09 09:20:28;;;;;;;12.10;4.50;;;5.90;99.90;;;;;;4939173;29;20208;-70
2022/01/09 09:23:13;;;;;;;6.00;2.55;;;5.70;99.90;;;;;;4947525;29;21079;-69
2022/01/09 09:25:59;;;;;;;18.93;3.97;;;5.70;99.90;;;;;;4953107;29;20208;-70
2022/01/09 09:28:44;;;;;;;11.35;3.75;;;5.70;99.90;;;;;;4948809;29;20464;-70
2022/01/09 09:31:30;;;;;;;16.45;7.15;;;5.70;99.90;;;;;;4934857;29;20277;-69
2022/01/09 09:34:16;;;;;;;11.25;3.75;;;5.60;99.90;;;;;;4934248;29;20329;-69
2022/01/09 09:37:02;;;;;;;6.18;2.25;;;5.70;99.90;;;;;;4935956;29;20204;-69
2022/01/09 09:39:51;;;;;;;6.68;2.42;;;5.60;99.90;;;;;;4945132;29;20205;-69
2022/01/09 09:42:37;;;;;;;9.80;2.30;;;5.70;99.90;;;;;;4948320;29;20249;-69
2022/01/09 09:45:24;;;;;;;8.07;3.00;;;5.80;99.90;;;;;;4947084;29;20329;-69
2022/01/09 09:48:10;;;;;;;11.55;2.35;;;5.80;99.90;;;;;;4952681;29;20268;-69
2022/01/09 09:50:56;;;;;;;10.70;3.58;;;5.80;99.90;;;;;;4948895;29;20909;-69
2022/01/09 09:53:42;;;;;;;12.45;3.83;;;5.70;99.90;;;;;;4952878;29;20476;-68
2022/01/09 09:56:28;;;;;;;11.68;2.00;;;5.80;99.90;;;;;;4934059;28;20209;-69
2022/01/09 09:59:13;;;;;;;11.70;3.83;;;5.90;99.90;;;;;;4949367;29;20213;-69
2022/01/09 10:01:59;;;;;;;11.40;4.57;;;5.90;99.90;;;;;;4945513;29;20205;-69
2022/01/09 10:05:00;;;;;;;18.40;5.85;;;5.90;99.90;;;;;;4952240;29;20703;-70
2022/01/09 10:07:47;;;;;;;11.77;2.92;;;5.90;99.90;;;;;;4953988;29;20366;-69
2022/01/09 10:10:38;;;;;;;14.38;5.40;;;5.90;99.90;;;;;;4944666;29;20312;-69
2022/01/09 10:13:24;;;;;;;10.48;3.40;;;6.00;99.90;;;;;;4954507;29;20233;-69
2022/01/09 10:16:11;;;;;;;21.23;6.03;;;6.00;99.90;;;;;;4954892;29;20204;-69
2022/01/09 10:18:56;;;;;;;27.75;8.10;;;6.10;99.90;;;;;;4949782;29;20201;-69
2022/01/09 10:21:46;;;;;;;32.37;8.27;;;6.00;99.90;;;;;;4952633;29;20324;-69
2022/01/09 10:24:33;;;;;;;8.68;2.60;;;6.10;99.90;;;;;;4950070;29;20483;-69
2022/01/09 10:27:32;;;;;;;11.00;3.72;;;6.00;99.90;;;;;;4945293;29;20235;-69
2022/01/09 10:30:23;;;;;;;21.38;5.55;;;6.00;99.90;;;;;;4950825;29;20200;-69
2022/01/09 10:33:12;;;;;;;11.27;3.63;;;5.90;99.90;;;;;;4949393;29;20228;-69
2022/01/09 10:35:58;;;;;;;22.02;3.78;;;5.90;99.90;;;;;;4956248;29;20569;-69
2022/01/09 10:38:47;;;;;;;9.15;2.60;;;5.90;99.90;;;;;;4944361;28;20394;-70
2022/01/09 10:41:53;;;;;;;11.10;2.83;;;6.00;99.90;;;;;;4942529;28;20224;-67
2022/01/09 10:44:43;;;;;;;6.05;2.05;;;6.10;99.90;;;;;;4943901;28;20296;-67
2022/01/09 10:47:36;;;;;;;10.37;2.77;;;6.10;99.90;;;;;;4954643;29;20329;-66
2022/01/09 10:50:30;;;;;;;9.45;1.90;;;6.10;99.90;;;;;;4944566;29;20471;-67
2022/01/09 10:53:25;;;;;;;12.18;2.35;;;6.20;99.90;;;;;;4944775;29;20235;-69
2022/01/09 10:56:13;;;;;;;18.40;2.90;;;6.20;99.90;;;;;;4951323;28;20233;-69
2022/01/09 10:59:00;;;;;;;11.43;2.30;;;6.20;99.90;;;;;;4948699;29;20208;-67
2022/01/09 11:01:46;;;;;;;11.07;2.25;;;6.20;99.90;;;;;;4955692;29;20673;-67
2022/01/09 11:04:31;;;;;;;4.65;1.70;;;6.30;99.90;;;;;;4955704;29;20610;-67
2022/01/09 11:07:17;;;;;;;9.00;2.53;;;6.20;99.90;;;;;;4954127;28;20200;-67
2022/01/09 11:10:07;;;;;;;9.52;2.30;;;6.30;99.90;;;;;;4936332;29;20771;-67
2022/01/09 11:12:58;;;;;;;6.10;2.45;;;6.30;99.90;;;;;;4935469;29;20224;-67
2022/01/09 11:16:32;;;;;;;9.63;2.25;;;6.30;99.90;;;;;;4936285;29;20669;-67
2022/01/09 11:18:51;;;;;;;8.48;2.50;;;6.20;99.90;;;;;;4935858;29;20225;-68
2022/01/09 11:21:39;;;;;;;9.50;2.50;;;6.30;99.90;;;;;;4936762;29;20212;-67
2022/01/09 11:25:01;;;;;;;12.48;2.50;;;6.30;99.90;;;;;;4935966;29;20232;-67
2022/01/09 11:28:10;;;;;;;11.23;2.80;;;6.20;99.90;;;;;;4950122;28;20662;-69
2022/01/09 11:31:06;;;;;;;18.75;2.50;;;6.20;99.90;;;;;;4952569;29;20244;-70
2022/01/09 11:34:05;;;;;;;12.00;4.88;;;6.30;99.90;;;;;;4947752;29;20232;-69
2022/01/09 11:37:01;;;;;;;15.90;3.00;;;6.20;99.90;;;;;;4954928;29;20713;-70
2022/01/09 11:39:47;;;;;;;3.78;2.20;;;6.10;99.90;;;;;;4940883;29;20287;-69
2022/01/09 11:42:32;;;;;;;10.13;2.25;;;6.10;99.90;;;;;;4936998;29;20208;-68
2022/01/09 11:45:38;;;;;;;11.55;2.03;;;6.10;99.90;;;;;;4937294;29;20317;-69
2022/01/09 11:48:43;;;;;;;6.47;2.03;;;6.20;99.90;;;;;;4936095;29;20284;-69
2022/01/09 11:51:30;;;;;;;11.80;2.53;;;6.30;99.90;;;;;;4935770;29;20206;-67
2022/01/09 11:54:17;;;;;;;7.35;2.50;;;6.30;99.90;;;;;;4963757;23;20236;-72
2022/01/09 11:57:06;;;;;;;19.08;3.38;;;6.30;99.90;;;;;;4957385;28;20205;-71
2022/01/09 11:59:53;;;;;;;7.75;2.30;;;6.50;99.90;;;;;;4951579;29;20691;-71
2022/01/09 12:02:39;;;;;;;10.15;2.78;;;6.40;99.90;;;;;;4935548;29;20678;-71
2022/01/09 12:05:26;;;;;;;10.18;3.25;;;6.40;99.90;;;;;;4938837;28;20208;-72
2022/01/09 12:08:12;;;;;;;8.63;2.15;;;6.50;99.90;;;;;;4952175;29;20560;-71
2022/01/09 12:10:59;;;;;;;9.20;2.53;;;6.50;99.90;;;;;;4954426;29;20653;-71
2022/01/09 12:13:44;;;;;;;11.77;2.50;;;6.40;99.90;;;;;;4952891;29;20228;-71
2022/01/09 12:16:48;;;;;;;8.02;2.20;;;6.40;99.90;;;;;;4952459;28;20568;-71
2022/01/09 12:19:58;;;;;;;6.05;2.53;;;6.40;99.90;;;;;;4954310;29;20208;-71
2022/01/09 12:23:06;;;;;;;12.48;2.00;;;6.30;99.90;;;;;;4954243;29;20683;-72
2022/01/09 12:25:55;;;;;;;9.80;3.42;;;6.30;99.90;;;;;;4953612;28;20215;-71
2022/01/09 12:28:46;;;;;;;35.22;10.90;;;6.30;99.90;;;;;;4950230;29;20204;-70
2022/01/09 12:31:32;;;;;;;13.07;4.97;;;6.30;99.90;;;;;;4954532;29;20336;-72
2022/01/09 12:34:18;;;;;;;21.15;8.10;;;6.30;99.90;;;;;;4953652;28;20232;-71
2022/01/09 12:37:03;;;;;;;11.73;3.80;;;6.40;99.90;;;;;;4951636;28;20690;-71
2022/01/09 12:39:52;;;;;;;29.77;9.68;;;6.40;99.90;;;;;;4953474;29;20240;-71
2022/01/09 12:42:38;;;;;;;16.40;5.07;;;6.40;99.90;;;;;;4954124;28;20260;-71
2022/01/09 12:45:25;;;;;;;18.83;3.30;;;6.50;99.90;;;;;;4953931;29;20260;-71
2022/01/09 12:48:19;;;;;;;13.07;3.35;;;6.50;99.90;;;;;;4936122;29;20500;-71
2022/01/09 12:51:10;;;;;;;29.10;8.73;;;6.60;99.90;;;;;;4934602;29;20329;-71
2022/01/09 12:53:58;;;;;;;11.23;4.07;;;6.70;99.90;;;;;;4934690;29;20537;-72
2022/01/09 12:56:45;;;;;;;21.77;7.82;;;6.70;99.90;;;;;;4941423;28;20452;-71
2022/01/09 12:59:32;;;;;;;3.80;1.73;;;6.70;99.90;;;;;;4948125;29;20203;-71
2022/01/09 13:02:18;;;;;;;7.85;2.25;;;6.80;99.90;;;;;;4954091;29;20432;-71
2022/01/09 13:05:03;;;;;;;8.52;4.25;;;6.80;99.90;;;;;;4953722;29;20212;-71
2022/01/09 13:07:56;;;;;;;10.40;2.43;;;6.80;99.90;;;;;;4935918;28;20217;-71
2022/01/09 13:10:42;;;;;;;7.33;2.30;;;6.80;99.90;;;;;;4948938;29;20829;-71
2022/01/09 13:13:30;;;;;;;3.25;1.90;;;6.80;99.90;;;;;;4951952;29;20456;-71
2022/01/09 13:16:18;;;;;;;6.07;1.60;;;6.80;99.90;;;;;;4947408;29;20213;-71
2022/01/09 13:19:06;;;;;;;5.20;1.90;;;6.90;99.90;;;;;;4934177;29;20226;-71
2022/01/09 13:21:53;;;;;;;5.77;2.23;;;6.90;99.90;;;;;;4934534;29;20400;-71
2022/01/09 13:24:39;;;;;;;6.90;2.43;;;6.80;99.90;;;;;;4934591;29;20450;-71
2022/01/09 13:27:24;;;;;;;7.60;2.17;;;6.90;99.90;;;;;;4954360;28;20977;-72
2022/01/09 13:30:11;;;;;;;11.17;1.67;;;6.90;99.90;;;;;;4953148;28;20231;-71
2022/01/09 13:33:02;;;;;;;5.93;1.85;;;6.90;99.90;;;;;;4953096;29;20476;-71
2022/01/09 13:35:48;;;;;;;6.68;1.63;;;6.90;99.90;;;;;;4948509;28;20783;-71
2022/01/09 13:38:33;;;;;;;15.30;1.92;;;6.80;99.90;;;;;;4936624;29;20208;-71
2022/01/09 13:41:19;;;;;;;10.60;2.57;;;6.70;99.90;;;;;;4938317;29;20249;-71
2022/01/09 13:44:06;;;;;;;7.70;1.60;;;6.70;99.90;;;;;;4938005;29;20962;-71
2022/01/09 13:47:04;;;;;;;5.13;2.40;;;6.70;99.90;;;;;;4940064;29;20782;-70
2022/01/09 13:50:00;;;;;;;4.73;2.10;;;6.70;99.90;;;;;;4939645;29;20220;-70
2022/01/09 13:52:46;;;;;;;7.90;2.03;;;6.70;99.90;;;;;;4956984;28;20424;-71
2022/01/09 13:55:33;;;;;;;7.28;1.85;;;6.80;99.90;;;;;;4951515;29;20452;-72
2022/01/09 13:58:20;;;;;;;6.20;1.88;;;6.80;99.90;;;;;;4963015;28;20208;-70
2022/01/09 14:01:05;;;;;;;11.40;2.63;;;6.80;99.90;;;;;;4956878;29;20204;-70
2022/01/09 14:03:52;;;;;;;8.77;1.80;;;6.80;99.90;;;;;;4956489;28;20228;-71
2022/01/09 14:06:38;;;;;;;19.83;2.42;;;6.80;99.90;;;;;;4941355;29;20229;-70
2022/01/09 14:09:31;;;;;;;9.82;2.55;;;6.90;99.90;;;;;;4937488;29;20229;-71
2022/01/09 14:12:21;;;;;;;10.07;2.30;;;6.80;99.90;;;;;;4937785;29;20209;-71
2022/01/09 14:15:14;;;;;;;8.00;1.70;;;6.80;99.90;;;;;;4939392;29;20220;-72
2022/01/09 14:17:59;;;;;;;6.50;1.97;;;6.80;99.90;;;;;;4937127;29;20213;-71
2022/01/09 14:20:46;;;;;;;9.43;2.30;;;6.80;99.90;;;;;;4937583;29;20429;-71
2022/01/09 14:23:33;;;;;;;5.67;1.60;;;6.80;99.90;;;;;;4937358;29;20555;-70
2022/01/09 14:26:21;;;;;;;2.47;1.25;;;6.70;99.90;;;;;;4955491;28;20437;-71
2022/01/09 14:29:06;;;;;;;5.82;2.08;;;6.80;99.90;;;;;;4956902;28;20211;-70
2022/01/09 14:31:52;;;;;;;4.93;1.83;;;6.80;99.90;;;;;;4956189;29;20208;-71
2022/01/09 14:34:42;;;;;;;8.70;2.10;;;6.70;99.90;;;;;;4952641;28;21004;-71
2022/01/09 14:37:28;;;;;;;11.13;3.33;;;6.70;99.90;;;;;;4936607;29;20217;-71
2022/01/09 14:40:17;;;;;;;20.65;8.35;;;6.70;99.90;;;;;;4937076;29;20208;-71